Toledo, OH (43620)

4:44 PM EDT on May 22, 2015 (GMT -0400)
OHDOT | | Change Station
CLOSE
Current Station
Personal Weather Station
Location: Toledo, OH
Elevation: 580 ft
Nearby Weather Stations

Elev 580 ft 41.67 °N, 83.57 °W | Updated 24 minutes ago

Clear
Clear
69 °F
Feels Like 69 °F
N
9
Wind Variable Wind from North
Gusts 14.0 mph

Today
High -- | Low -- °F
--% Chance of Precip.
Yesterday
High -- | Low -- °F
Precip. -- in
6:08 AM 8:53 PM
Waxing Crescent, 24% visible
Pressure 30.21 in
Visibility 10.0 miles
Clouds Clear
Dew Point 34 °F
Humidity 27%
Rainfall in
Snow Depth Not available.
UV 8 out of 12
Pollen 9.40 out of 12
Air Quality Not available.
Flu Activity Local Activity
METAR KTDZ 221953Z AUTO 32005KT 10SM CLR 21/M03 A3021 RMK AO2 SLP229 T02061028 TSNO

More Conditions Fewer Conditions

Pressure 30.21 in
Visibility 10.0 miles
Clouds Clear
Dew Point 34 °F
Humidity 27%
Rainfall in
Snow Depth Not available.
UV 8 out of 12
Pollen 9.40 out of 12
Air Quality Not available.
Flu Activity Local Activity
METAR KTDZ 221953Z AUTO 32005KT 10SM CLR 21/M03 A3021 RMK AO2 SLP229 T02061028 TSNO

More Conditions Fewer Conditions

10-Day Weather Forecast

Almanac

Astronomy

May. 22, 2015 Rise Set
Actual Time
Civil Twilight
Nautical Twilight
Astronomical Twilight
Moon
Length of Visible Light
Length of Day
Tomorrow will be .
, % of the Moon is Illuminated

Today's Extremes

State Highs State Lows

Community

WunderPhotos

Upload Photos

1,823,295 photos uploaded!

WunderBlogs® & News

Nearby

Air Quality

  Air Quality AQ Index Pollutant
Not available.

Snow Depth

Station Depth Elevation

Earthquake Activity

City Distance Mag. Time & Date
Minimum magnitude displayed is 2.5.

Coastal Water Temperatures

Place Temperature

Stations

Nearby Weather Stations

Station Location Temp. Windchill Dew Point Humidity Wind Precip. Elev Updated Type